createdAt,value
2023-07-17T00:00:06.891Z,11.10
2023-07-17T00:02:34.922Z,15.18
2023-07-17T00:05:05.357Z,9.40
2023-07-17T00:07:33.359Z,11.57
2023-07-17T00:10:01.227Z,13.65
2023-07-17T00:12:29.176Z,12.02
2023-07-17T00:14:57.012Z,11.07
2023-07-17T00:17:24.914Z,12.55
2023-07-17T00:19:56.867Z,14.90
2023-07-17T00:22:26.826Z,11.60
2023-07-17T00:24:55.153Z,10.63
2023-07-17T00:27:23.421Z,12.02
2023-07-17T00:29:51.344Z,10.70
2023-07-17T00:32:19.733Z,10.30
2023-07-17T00:34:47.846Z,15.45
2023-07-17T00:37:16.479Z,10.95
2023-07-17T00:39:45.719Z,11.30
2023-07-17T00:42:13.561Z,13.82
2023-07-17T00:44:41.444Z,10.63
2023-07-17T00:47:11.591Z,10.35
2023-07-17T00:49:42.042Z,13.80
2023-07-17T00:52:11.963Z,14.60
2023-07-17T00:54:42.508Z,12.55
2023-07-17T00:57:14.764Z,15.33
2023-07-17T00:59:43.065Z,14.52
2023-07-17T01:02:12.244Z,16.15
2023-07-17T01:04:46.025Z,11.48
2023-07-17T01:07:16.219Z,14.10
2023-07-17T01:09:44.120Z,14.00
2023-07-17T01:12:13.390Z,14.25
2023-07-17T01:14:41.731Z,16.65
2023-07-17T01:17:10.190Z,15.35
2023-07-17T01:19:38.235Z,14.80
2023-07-17T01:22:13.333Z,14.03
2023-07-17T01:24:42.866Z,20.02
2023-07-17T01:27:10.875Z,13.85
2023-07-17T01:29:38.931Z,11.25
2023-07-17T01:32:07.600Z,13.38
2023-07-17T01:34:36.246Z,16.20
2023-07-17T01:37:04.159Z,17.05
2023-07-17T01:39:32.419Z,15.30
2023-07-17T01:42:01.600Z,11.38
2023-07-17T01:44:31.251Z,18.05
2023-07-17T01:46:59.513Z,12.97
2023-07-17T01:49:27.489Z,16.50
2023-07-17T01:51:55.397Z,19.27
2023-07-17T01:54:23.358Z,15.38
2023-07-17T01:56:51.248Z,19.45
2023-07-17T01:59:21.902Z,14.97
2023-07-17T02:01:49.924Z,14.50
2023-07-17T02:04:17.875Z,14.82
2023-07-17T02:06:45.833Z,17.92
2023-07-17T02:09:13.805Z,12.98
2023-07-17T02:11:41.700Z,13.00
2023-07-17T02:14:10.040Z,14.15
2023-07-17T02:16:39.263Z,14.55
2023-07-17T02:19:08.064Z,16.58
2023-07-17T02:21:35.925Z,14.60
2023-07-17T02:24:04.024Z,17.93
2023-07-17T02:26:31.859Z,11.68
2023-07-17T02:28:59.647Z,16.20
2023-07-17T02:31:27.820Z,12.43
2023-07-17T02:33:57.145Z,15.65
2023-07-17T02:36:25.082Z,13.83
2023-07-17T02:38:52.927Z,17.35
2023-07-17T02:41:22.123Z,16.52
2023-07-17T02:43:50.079Z,15.57
2023-07-17T02:46:18.231Z,17.73
2023-07-17T02:48:46.371Z,14.40
2023-07-17T02:51:16.252Z,14.30
2023-07-17T02:53:44.468Z,12.45
2023-07-17T02:56:12.464Z,10.60
2023-07-17T02:58:43.567Z,14.98
2023-07-17T03:01:11.766Z,14.53
2023-07-17T03:03:40.865Z,16.00
2023-07-17T03:06:08.749Z,14.27
2023-07-17T03:08:38.221Z,19.10
2023-07-17T03:11:06.417Z,19.35
2023-07-17T03:13:34.870Z,13.07
2023-07-17T03:16:03.839Z,15.77
2023-07-17T03:18:31.800Z,12.00
2023-07-17T03:20:59.713Z,18.52
2023-07-17T03:23:28.125Z,13.25
2023-07-17T03:25:59.277Z,11.80
2023-07-17T03:28:27.206Z,17.38
2023-07-17T03:30:58.054Z,13.43
2023-07-17T03:33:26.794Z,16.98
2023-07-17T03:35:54.762Z,14.60
2023-07-17T03:38:22.795Z,10.70
2023-07-17T03:40:50.727Z,15.13
2023-07-17T03:43:20.074Z,17.75
2023-07-17T03:45:52.210Z,17.85
2023-07-17T03:48:20.234Z,12.68
2023-07-17T03:50:50.381Z,20.83
2023-07-17T03:53:19.161Z,18.63
2023-07-17T03:55:47.164Z,18.67
2023-07-17T03:58:15.298Z,18.83
2023-07-17T04:00:44.859Z,15.40
2023-07-17T04:03:13.073Z,10.17
2023-07-17T04:05:44.435Z,17.40
2023-07-17T04:08:12.474Z,14.52
2023-07-17T04:10:40.432Z,17.13
2023-07-17T04:13:09.258Z,17.98
2023-07-17T04:15:37.321Z,14.23
2023-07-17T04:18:08.154Z,20.65
2023-07-17T04:20:39.393Z,10.35
2023-07-17T04:23:07.735Z,17.30
2023-07-17T04:25:35.874Z,15.63
2023-07-17T04:28:05.034Z,16.70
2023-07-17T04:30:34.251Z,14.63
2023-07-17T04:33:02.162Z,13.35
2023-07-17T04:35:31.429Z,14.18
2023-07-17T04:37:59.561Z,14.32
2023-07-17T04:40:28.214Z,12.77
2023-07-17T04:42:56.117Z,15.68
2023-07-17T04:45:24.022Z,15.73
2023-07-17T04:47:53.739Z,13.18
2023-07-17T04:50:26.137Z,18.65
2023-07-17T04:52:55.681Z,20.00
2023-07-17T04:55:24.652Z,16.70
2023-07-17T04:57:53.066Z,13.05
2023-07-17T05:00:24.481Z,14.48
2023-07-17T05:02:53.631Z,15.00
2023-07-17T05:05:21.718Z,16.57
2023-07-17T05:07:50.251Z,17.52
2023-07-17T05:10:20.641Z,15.95
2023-07-17T05:12:48.566Z,15.48
2023-07-17T05:15:17.580Z,19.90
2023-07-17T05:17:45.542Z,12.67
2023-07-17T05:20:13.907Z,15.35
2023-07-17T05:22:42.326Z,13.63
2023-07-17T05:25:10.293Z,10.52
2023-07-17T05:27:39.533Z,16.77
2023-07-17T05:30:08.835Z,14.10
2023-07-17T05:32:36.730Z,16.38
2023-07-17T05:35:05.019Z,18.75
2023-07-17T05:37:33.557Z,14.13
2023-07-17T05:40:02.246Z,12.15
2023-07-17T05:42:30.902Z,12.37
2023-07-17T05:45:00.429Z,18.20
2023-07-17T05:47:28.877Z,17.65
2023-07-17T05:49:56.778Z,15.57
2023-07-17T05:52:24.608Z,12.02
2023-07-17T05:54:52.485Z,13.73
2023-07-17T05:57:20.403Z,13.30
2023-07-17T05:59:48.864Z,10.95
2023-07-17T06:02:19.465Z,11.60
2023-07-17T06:04:47.595Z,10.93
2023-07-17T06:07:15.519Z,14.87
2023-07-17T06:09:43.328Z,14.98
2023-07-17T06:12:11.206Z,10.68
2023-07-17T06:14:39.004Z,14.18
2023-07-17T06:17:07.430Z,8.95
2023-07-17T06:19:36.764Z,12.40
2023-07-17T06:22:04.922Z,11.75
2023-07-17T06:24:32.878Z,12.23
2023-07-17T06:27:01.356Z,12.77
2023-07-17T06:29:29.470Z,11.77
2023-07-17T06:31:57.439Z,9.60
2023-07-17T06:34:25.440Z,13.93
2023-07-17T06:36:55.036Z,9.20
2023-07-17T06:39:22.936Z,10.15
2023-07-17T06:41:50.802Z,11.02
2023-07-17T06:44:18.630Z,10.07
2023-07-17T06:46:46.611Z,14.07
2023-07-17T06:49:14.486Z,10.40
2023-07-17T06:51:42.619Z,9.18
2023-07-17T06:54:11.771Z,9.05
2023-07-17T06:56:39.663Z,9.27
2023-07-17T06:59:07.480Z,10.00
2023-07-17T07:01:35.355Z,9.50
2023-07-17T07:04:03.250Z,10.38
2023-07-17T07:06:31.665Z,10.98
2023-07-17T07:08:59.540Z,8.70
2023-07-17T07:11:28.885Z,9.27
2023-07-17T07:13:56.800Z,8.05
2023-07-17T07:16:24.777Z,6.75
2023-07-17T07:18:52.719Z,9.63
2023-07-17T07:21:20.568Z,8.70
2023-07-17T07:23:48.556Z,9.43
2023-07-17T07:26:16.958Z,7.57
2023-07-17T07:28:46.349Z,13.95
2023-07-17T07:31:14.391Z,12.68
2023-07-17T07:33:42.325Z,10.47
2023-07-17T07:36:10.236Z,11.02
2023-07-17T07:38:38.145Z,11.35
2023-07-17T07:41:06.050Z,8.07
2023-07-17T07:43:33.949Z,8.85
2023-07-17T07:46:03.265Z,6.37
2023-07-17T07:48:32.562Z,8.00
2023-07-17T07:51:00.470Z,7.72
2023-07-17T07:53:42.024Z,9.02
2023-07-17T07:56:11.136Z,10.82
2023-07-17T07:58:38.889Z,12.20
2023-07-17T08:01:08.260Z,10.75
2023-07-17T08:03:36.504Z,7.68
2023-07-17T08:06:04.441Z,8.50
2023-07-17T08:08:32.384Z,9.13
2023-07-17T08:11:00.309Z,9.33
2023-07-17T08:13:28.232Z,8.15
2023-07-17T08:15:56.174Z,8.23
2023-07-17T08:18:25.456Z,9.73
2023-07-17T08:20:55.380Z,17.73
2023-07-17T08:23:29.211Z,9.33
2023-07-17T08:25:57.452Z,8.40
2023-07-17T08:28:25.544Z,8.95
2023-07-17T08:30:54.822Z,8.65
2023-07-17T08:33:22.809Z,9.50
2023-07-17T08:35:52.773Z,11.57
2023-07-17T08:38:20.751Z,10.70
2023-07-17T08:40:52.582Z,6.50
2023-07-17T08:43:21.148Z,10.90
2023-07-17T08:45:49.350Z,10.93
2023-07-17T08:48:18.614Z,8.73
2023-07-17T08:50:46.619Z,10.38
2023-07-17T08:53:17.288Z,12.68
2023-07-17T08:55:45.853Z,10.38
2023-07-17T08:58:13.843Z,9.20
2023-07-17T09:00:43.998Z,6.60
2023-07-17T09:03:12.083Z,8.82
2023-07-17T09:05:40.071Z,6.85
2023-07-17T09:08:08.530Z,10.27
2023-07-17T09:10:37.911Z,7.80
2023-07-17T09:13:06.006Z,6.03
2023-07-17T09:15:35.288Z,7.80
2023-07-17T09:18:04.550Z,13.13
2023-07-17T09:20:32.720Z,9.20
2023-07-17T09:23:02.467Z,10.02
2023-07-17T09:25:31.849Z,10.07
2023-07-17T09:28:01.082Z,10.45
2023-07-17T09:30:29.472Z,13.60
2023-07-17T09:33:08.668Z,8.85
2023-07-17T09:35:37.445Z,10.43
2023-07-17T09:38:11.563Z,13.57
2023-07-17T09:40:39.475Z,11.30
2023-07-17T09:43:08.856Z,11.38
2023-07-17T09:45:38.067Z,11.32
2023-07-17T09:48:07.428Z,11.07
2023-07-17T09:50:36.064Z,8.63
2023-07-17T09:53:04.534Z,10.85
2023-07-17T09:55:34.481Z,11.00
2023-07-17T09:58:08.806Z,13.85
2023-07-17T10:00:40.617Z,9.13
2023-07-17T10:03:10.962Z,9.23
2023-07-17T10:05:40.008Z,5.38
2023-07-17T10:08:09.996Z,4.93
2023-07-17T10:10:38.252Z,5.57
2023-07-17T10:13:09.137Z,8.77
2023-07-17T10:15:38.248Z,5.87
2023-07-17T10:18:10.516Z,7.78
2023-07-17T10:20:39.750Z,8.65
2023-07-17T10:23:11.858Z,9.50
2023-07-17T10:25:39.943Z,6.07
2023-07-17T10:28:09.717Z,6.37
2023-07-17T10:30:38.937Z,6.18
2023-07-17T10:33:13.983Z,5.28
2023-07-17T10:35:46.989Z,6.63
2023-07-17T10:38:15.962Z,9.88
2023-07-17T10:40:43.969Z,8.07
2023-07-17T10:43:18.822Z,7.97
2023-07-17T10:45:48.426Z,9.50
2023-07-17T10:48:18.890Z,9.48
2023-07-17T10:50:52.196Z,8.85
2023-07-17T10:53:21.115Z,8.97
2023-07-17T10:55:49.215Z,8.95
2023-07-17T10:58:19.944Z,8.93
2023-07-17T11:00:48.120Z,7.13
2023-07-17T11:03:16.847Z,6.55
2023-07-17T11:05:46.218Z,9.80
2023-07-17T11:08:15.165Z,6.55
2023-07-17T11:10:44.510Z,9.90
2023-07-17T11:13:12.727Z,9.35
2023-07-17T11:15:42.124Z,9.30
2023-07-17T11:18:11.853Z,9.73
2023-07-17T11:20:40.378Z,8.90
2023-07-17T11:23:12.894Z,8.57
2023-07-17T11:25:42.048Z,8.00
2023-07-17T11:28:10.195Z,7.72
2023-07-17T11:30:38.536Z,5.97
2023-07-17T11:33:09.610Z,9.23
2023-07-17T11:35:45.745Z,15.57
2023-07-17T11:38:16.290Z,7.20
2023-07-17T11:40:52.048Z,7.38
2023-07-17T11:43:26.187Z,8.23
2023-07-17T11:45:57.061Z,6.13
2023-07-17T11:48:27.151Z,5.55
2023-07-17T11:50:57.544Z,6.88
2023-07-17T11:53:26.739Z,6.57
2023-07-17T11:55:54.733Z,11.10
2023-07-17T11:58:24.232Z,6.05
2023-07-17T12:00:54.387Z,11.82
2023-07-17T12:03:22.607Z,7.95
2023-07-17T12:05:52.037Z,8.93
2023-07-17T12:08:20.162Z,9.87
2023-07-17T12:10:48.094Z,7.00
2023-07-17T12:13:15.895Z,9.20
2023-07-17T12:15:43.809Z,6.35
2023-07-17T12:18:11.734Z,9.80
2023-07-17T12:20:39.723Z,10.73
2023-07-17T12:23:10.162Z,8.30
2023-07-17T12:25:43.148Z,8.85
2023-07-17T12:28:11.296Z,8.88
2023-07-17T12:30:39.320Z,9.43
2023-07-17T12:33:07.262Z,8.83
2023-07-17T12:38:04.724Z,10.52
2023-07-17T12:40:34.022Z,8.38
2023-07-17T12:43:01.999Z,7.47
2023-07-17T12:45:32.278Z,9.30
2023-07-17T12:48:00.995Z,8.15
2023-07-17T12:50:29.363Z,11.07
2023-07-17T12:52:57.244Z,7.45
2023-07-17T12:55:25.083Z,8.68
2023-07-17T12:57:54.367Z,7.43
2023-07-17T13:00:22.869Z,8.82
2023-07-17T13:02:51.901Z,8.63
2023-07-17T13:05:20.003Z,6.75
2023-07-17T13:07:49.743Z,8.68
2023-07-17T13:10:19.203Z,11.77
2023-07-17T13:12:49.319Z,9.40
2023-07-17T13:15:19.790Z,13.40
2023-07-17T13:17:47.764Z,9.88
2023-07-17T13:20:16.182Z,8.07
2023-07-17T13:22:43.991Z,7.87
2023-07-17T13:25:11.790Z,10.13
2023-07-17T13:27:39.758Z,9.73
2023-07-17T13:30:09.154Z,6.03
2023-07-17T13:32:38.488Z,12.27
2023-07-17T13:35:07.241Z,6.73
2023-07-17T13:37:35.115Z,11.52
2023-07-17T13:40:02.920Z,11.90
2023-07-17T13:42:30.910Z,10.77
2023-07-17T13:45:01.207Z,8.15
2023-07-17T13:47:29.637Z,9.70
2023-07-17T13:49:59.233Z,6.97
2023-07-17T13:52:26.998Z,7.72
2023-07-17T13:54:54.866Z,10.00
2023-07-17T13:57:23.543Z,12.23
2023-07-17T13:59:54.159Z,9.00
2023-07-17T14:02:22.682Z,6.60
2023-07-17T14:04:51.024Z,10.57
2023-07-17T14:07:20.374Z,11.73
2023-07-17T14:09:48.536Z,11.48
2023-07-17T14:12:16.646Z,12.10
2023-07-17T14:14:44.684Z,9.73
2023-07-17T14:17:12.817Z,10.27
2023-07-17T14:19:40.759Z,6.90
2023-07-17T14:22:08.744Z,7.05
2023-07-17T14:24:37.929Z,10.13
2023-07-17T14:27:06.480Z,7.25
2023-07-17T14:29:34.320Z,12.05
2023-07-17T14:32:02.488Z,7.80
2023-07-17T14:34:30.593Z,9.52
2023-07-17T14:36:58.493Z,7.17
2023-07-17T14:39:26.363Z,11.07
2023-07-17T14:41:55.583Z,10.55
2023-07-17T14:44:23.627Z,8.80
2023-07-17T14:46:51.540Z,8.32
2023-07-17T14:49:19.927Z,11.33
2023-07-17T14:51:47.826Z,8.00
2023-07-17T14:54:15.803Z,11.43
2023-07-17T14:56:43.735Z,10.00
2023-07-17T14:59:12.928Z,9.77
2023-07-17T15:01:40.959Z,9.73
2023-07-17T15:04:08.854Z,9.57
2023-07-17T15:06:37.233Z,9.75
2023-07-17T15:09:05.154Z,10.32
2023-07-17T15:11:33.024Z,17.90
2023-07-17T15:14:09.610Z,21.33
2023-07-17T15:16:46.570Z,16.73
2023-07-17T15:19:14.413Z,10.35
2023-07-17T15:21:42.269Z,13.27
2023-07-17T15:24:10.136Z,10.68
2023-07-17T15:26:38.040Z,10.97
2023-07-17T15:29:05.925Z,8.85
2023-07-17T15:31:33.797Z,8.77
2023-07-17T15:34:03.612Z,10.75
2023-07-17T15:36:31.447Z,12.98
2023-07-17T15:38:59.353Z,10.97
2023-07-17T15:41:27.481Z,10.88
2023-07-17T15:43:55.280Z,10.90
2023-07-17T15:46:23.208Z,10.35
2023-07-17T15:48:51.144Z,10.10
2023-07-17T15:51:20.489Z,7.90
2023-07-17T15:53:48.221Z,9.60
2023-07-17T15:56:16.124Z,8.80
2023-07-17T15:58:44.033Z,7.88
2023-07-17T16:01:13.976Z,7.20
2023-07-17T16:03:42.961Z,12.60
2023-07-17T16:06:10.789Z,7.00
2023-07-17T16:08:40.214Z,8.07
2023-07-17T16:11:08.664Z,8.07
2023-07-17T16:13:36.538Z,7.32
2023-07-17T16:16:07.209Z,6.63
2023-07-17T16:18:35.343Z,5.53
2023-07-17T16:21:03.696Z,8.18
2023-07-17T16:23:32.459Z,9.90
2023-07-17T16:26:01.609Z,8.10
2023-07-17T16:28:29.454Z,9.17
2023-07-17T16:30:57.586Z,10.77
2023-07-17T16:33:25.530Z,8.60
2023-07-17T16:35:53.421Z,7.80
2023-07-17T16:38:21.353Z,8.88
2023-07-17T16:40:49.591Z,10.40
2023-07-17T16:43:19.015Z,9.85
2023-07-17T16:45:46.847Z,8.63
2023-07-17T16:48:15.487Z,8.18
2023-07-17T16:50:45.039Z,13.20
2023-07-17T16:53:12.890Z,7.43
2023-07-17T16:55:40.840Z,7.93
2023-07-17T16:58:08.720Z,9.00
2023-07-17T17:00:38.075Z,10.57
2023-07-17T17:03:06.803Z,9.80
2023-07-17T17:05:34.791Z,9.67
2023-07-17T17:08:05.857Z,9.02
2023-07-17T17:10:33.790Z,12.02
2023-07-17T17:13:01.630Z,9.48
2023-07-17T17:15:29.909Z,10.13
2023-07-17T17:17:59.357Z,12.50
2023-07-17T17:20:27.409Z,10.32
2023-07-17T17:22:55.337Z,8.43
2023-07-17T17:25:23.371Z,13.45
2023-07-17T17:27:51.186Z,10.45
2023-07-17T17:30:19.198Z,9.13
2023-07-17T17:32:47.390Z,8.57
2023-07-17T17:35:16.901Z,8.07
2023-07-17T17:37:44.765Z,10.88
2023-07-17T17:40:13.190Z,9.20
2023-07-17T17:42:41.022Z,9.57
2023-07-17T17:45:11.161Z,5.60
2023-07-17T17:47:39.081Z,8.88
2023-07-17T17:50:07.951Z,8.82
2023-07-17T17:52:37.259Z,8.52
2023-07-17T17:55:05.897Z,7.83
2023-07-17T17:57:33.807Z,9.20
2023-07-17T18:00:01.676Z,10.02
2023-07-17T18:02:29.623Z,7.40
2023-07-17T18:04:57.543Z,9.55
2023-07-17T18:07:25.340Z,10.83
2023-07-17T18:09:54.530Z,10.85
2023-07-17T18:12:22.370Z,7.97
2023-07-17T18:14:50.219Z,7.75
2023-07-17T18:17:18.153Z,6.25
2023-07-17T18:19:46.112Z,8.37
2023-07-17T18:22:14.058Z,9.57
2023-07-17T18:24:42.051Z,6.80
2023-07-17T18:27:11.965Z,7.35
2023-07-17T18:29:39.839Z,10.98
2023-07-17T18:32:09.304Z,8.13
2023-07-17T18:34:37.180Z,8.02
2023-07-17T18:37:05.404Z,12.15
2023-07-17T18:39:33.367Z,8.80
2023-07-17T18:42:01.379Z,6.88
2023-07-17T18:44:30.597Z,8.17
2023-07-17T18:46:58.431Z,5.78
2023-07-17T18:49:26.489Z,7.85
2023-07-17T18:51:54.479Z,7.63
2023-07-17T18:54:22.383Z,9.60
2023-07-17T18:56:50.285Z,8.60
2023-07-17T18:59:19.087Z,10.27
2023-07-17T19:01:50.501Z,12.35
2023-07-17T19:04:18.469Z,11.45
2023-07-17T19:06:46.708Z,7.15
2023-07-17T19:09:14.819Z,13.03
2023-07-17T19:11:42.783Z,7.90
2023-07-17T19:14:10.714Z,8.55
2023-07-17T19:16:38.677Z,12.63
2023-07-17T19:19:08.128Z,12.90
2023-07-17T19:21:37.498Z,9.43
2023-07-17T19:24:05.900Z,9.57
2023-07-17T19:26:33.919Z,9.60
2023-07-17T19:29:01.802Z,13.57
2023-07-17T19:31:29.757Z,12.05
2023-07-17T19:33:58.288Z,8.73
2023-07-17T19:36:27.763Z,7.93
2023-07-17T19:38:57.097Z,13.85
2023-07-17T19:41:24.978Z,12.57
2023-07-17T19:43:52.814Z,12.00
2023-07-17T19:46:20.677Z,13.23
2023-07-17T19:48:48.549Z,9.27
2023-07-17T19:51:17.457Z,12.18
2023-07-17T19:53:47.842Z,9.18
2023-07-17T19:56:16.325Z,12.73
2023-07-17T19:58:44.146Z,12.27
2023-07-17T20:01:12.182Z,10.15
2023-07-17T20:03:40.181Z,14.45
2023-07-17T20:06:10.732Z,9.23
2023-07-17T20:08:38.604Z,9.13
2023-07-17T20:11:07.652Z,11.73
2023-07-17T20:13:35.717Z,15.00
2023-07-17T20:16:03.675Z,15.50
2023-07-17T20:18:31.710Z,16.55
2023-07-17T20:20:59.559Z,14.10
2023-07-17T20:23:27.374Z,14.73
2023-07-17T20:25:55.295Z,16.73
2023-07-17T20:28:24.832Z,10.02
2023-07-17T20:30:52.842Z,6.40
2023-07-17T20:33:22.329Z,13.48
2023-07-17T20:35:51.682Z,12.43
2023-07-17T20:38:20.690Z,11.82
2023-07-17T20:40:49.070Z,9.35
2023-07-17T20:43:17.243Z,10.93
2023-07-17T20:45:53.638Z,12.38
2023-07-17T20:48:21.954Z,9.70
2023-07-17T20:51:03.876Z,12.05
2023-07-17T20:53:32.069Z,11.55
2023-07-17T20:55:59.925Z,20.98
2023-07-17T20:58:27.851Z,10.55
2023-07-17T21:01:03.129Z,10.67
2023-07-17T21:03:31.732Z,8.52
2023-07-17T21:05:59.593Z,10.88
2023-07-17T21:08:27.718Z,12.45
2023-07-17T21:10:56.030Z,12.40
2023-07-17T21:13:24.534Z,12.23
2023-07-17T21:15:53.038Z,10.95
2023-07-17T21:18:22.468Z,12.35
2023-07-17T21:20:51.436Z,9.52
2023-07-17T21:23:21.088Z,10.23
2023-07-17T21:25:50.421Z,10.27
2023-07-17T21:28:18.650Z,8.60
2023-07-17T21:30:46.867Z,13.70
2023-07-17T21:33:15.111Z,18.73
2023-07-17T21:35:44.781Z,12.65
2023-07-17T21:38:12.557Z,10.60
2023-07-17T21:40:40.763Z,12.80
2023-07-17T21:43:08.686Z,11.85
2023-07-17T21:45:36.583Z,19.02
2023-07-17T21:48:04.541Z,11.75
2023-07-17T21:50:32.324Z,10.83
2023-07-17T21:53:01.527Z,10.07
2023-07-17T21:55:29.295Z,12.57
2023-07-17T21:57:57.117Z,12.52
2023-07-17T22:00:25.280Z,12.25
2023-07-17T22:02:53.411Z,17.23
2023-07-17T22:05:21.492Z,15.43
2023-07-17T22:07:49.635Z,13.95
2023-07-17T22:10:19.116Z,16.77
2023-07-17T22:12:46.973Z,14.02
2023-07-17T22:15:16.068Z,13.50
2023-07-17T22:17:45.056Z,14.82
2023-07-17T22:20:14.988Z,11.00
2023-07-17T22:22:42.918Z,13.75
2023-07-17T22:25:10.969Z,12.32
2023-07-17T22:27:40.612Z,11.40
2023-07-17T22:30:09.258Z,11.23
2023-07-17T22:32:37.268Z,16.52
2023-07-17T22:35:05.800Z,12.43
2023-07-17T22:37:34.403Z,17.02
2023-07-17T22:40:02.657Z,13.83
2023-07-17T22:42:30.639Z,13.32
2023-07-17T22:44:59.873Z,11.00
2023-07-17T22:47:28.192Z,14.15
2023-07-17T22:49:56.894Z,15.25
2023-07-17T22:52:27.022Z,9.13
2023-07-17T22:54:54.989Z,9.95
2023-07-17T22:57:23.541Z,8.52
2023-07-17T22:59:53.144Z,12.27
2023-07-17T23:02:22.840Z,12.05
2023-07-17T23:04:50.818Z,9.77
2023-07-17T23:07:18.712Z,11.35
2023-07-17T23:09:46.617Z,11.95
2023-07-17T23:12:14.593Z,13.43
2023-07-17T23:14:42.489Z,15.23
2023-07-17T23:17:10.322Z,13.00
2023-07-17T23:19:39.592Z,18.30
2023-07-17T23:22:07.763Z,9.65
2023-07-17T23:24:35.809Z,15.45
2023-07-17T23:27:03.696Z,16.10
2023-07-17T23:29:31.575Z,14.17
2023-07-17T23:31:59.381Z,14.10
2023-07-17T23:34:27.281Z,20.17
2023-07-17T23:36:56.979Z,16.88
2023-07-17T23:39:24.850Z,17.10
2023-07-17T23:41:52.737Z,14.20
2023-07-17T23:44:20.556Z,11.82
2023-07-17T23:46:49.030Z,14.52
2023-07-17T23:49:17.768Z,16.67
2023-07-17T23:51:46.466Z,17.58
2023-07-17T23:54:15.842Z,16.17
2023-07-17T23:56:43.733Z,12.27
2023-07-17T23:59:11.606Z,12.18
